sensor_id;sensor_type;location;lat;lon;timestamp;pressure;altitude;pressure_sealevel;temperature;humidity
11017;BME280;54687;50.800;6.772;2022-11-15T00:01:06;61097.09;;;-144.06;65.85
11017;BME280;54687;50.800;6.772;2022-11-15T00:03:33;61126.44;;;-144.06;65.90
11017;BME280;54687;50.800;6.772;2022-11-15T00:06:01;61120.16;;;-144.06;65.92
11017;BME280;54687;50.800;6.772;2022-11-15T00:08:29;61113.88;;;-144.06;65.68
11017;BME280;54687;50.800;6.772;2022-11-15T00:10:56;61097.09;;;-144.06;65.91
11017;BME280;54687;50.800;6.772;2022-11-15T00:13:24;61082.44;;;-144.06;65.70
11017;BME280;54687;50.800;6.772;2022-11-15T00:15:51;61078.25;;;-144.06;65.83
11017;BME280;54687;50.800;6.772;2022-11-15T00:18:18;61103.38;;;-144.06;65.77
11017;BME280;54687;50.800;6.772;2022-11-15T00:20:45;61063.56;;;-144.06;65.91
11017;BME280;54687;50.800;6.772;2022-11-15T00:23:12;61113.88;;;-144.06;65.90
11017;BME280;54687;50.800;6.772;2022-11-15T00:25:38;61109.69;;;-144.06;65.65
11017;BME280;54687;50.800;6.772;2022-11-15T00:28:05;61076.13;;;-144.06;65.87
11017;BME280;54687;50.800;6.772;2022-11-15T00:30:33;61071.94;;;-144.06;65.79
11017;BME280;54687;50.800;6.772;2022-11-15T00:33:02;61088.72;;;-144.06;65.97
11017;BME280;54687;50.800;6.772;2022-11-15T00:35:31;61136.94;;;-144.06;65.86
11017;BME280;54687;50.800;6.772;2022-11-15T00:37:58;61118.06;;;-144.06;66.08
11017;BME280;54687;50.800;6.772;2022-11-15T00:40:25;61118.06;;;-144.06;66.12
11017;BME280;54687;50.800;6.772;2022-11-15T00:42:51;61080.34;;;-144.06;66.24
11017;BME280;54687;50.800;6.772;2022-11-15T00:45:18;61139.03;;;-144.06;66.12
11017;BME280;54687;50.800;6.772;2022-11-15T00:47:46;61101.28;;;-144.06;66.34
11017;BME280;54687;50.800;6.772;2022-11-15T00:50:13;61092.91;;;-144.06;66.60
11017;BME280;54687;50.800;6.772;2022-11-15T00:52:40;61082.44;;;-144.06;66.27
11017;BME280;54687;50.800;6.772;2022-11-15T00:55:08;61113.88;;;-144.06;66.13
11017;BME280;54687;50.800;6.772;2022-11-15T00:57:36;61088.72;;;-144.06;65.81
11017;BME280;54687;50.800;6.772;2022-11-15T01:00:03;61126.44;;;-144.06;66.02
11017;BME280;54687;50.800;6.772;2022-11-15T01:02:30;61080.34;;;-144.06;65.92
11017;BME280;54687;50.800;6.772;2022-11-15T01:04:58;61149.50;;;-144.06;65.80
11017;BME280;54687;50.800;6.772;2022-11-15T01:07:25;61109.69;;;-144.06;65.84
11017;BME280;54687;50.800;6.772;2022-11-15T01:09:51;61092.91;;;-144.06;65.61
11017;BME280;54687;50.800;6.772;2022-11-15T01:12:19;61109.69;;;-144.06;65.59
11017;BME280;54687;50.800;6.772;2022-11-15T01:14:45;61076.13;;;-144.06;65.61
11017;BME280;54687;50.800;6.772;2022-11-15T01:17:12;61092.91;;;-144.06;65.50
11017;BME280;54687;50.800;6.772;2022-11-15T01:19:38;61107.59;;;-144.06;65.48
11017;BME280;54687;50.800;6.772;2022-11-15T01:22:06;61044.69;;;-144.06;65.56
11017;BME280;54687;50.800;6.772;2022-11-15T01:24:33;61042.59;;;-144.06;65.67
11017;BME280;54687;50.800;6.772;2022-11-15T01:27:00;61071.94;;;-144.06;65.68
11017;BME280;54687;50.800;6.772;2022-11-15T01:29:26;61103.38;;;-144.06;65.68
11017;BME280;54687;50.800;6.772;2022-11-15T01:31:53;61080.34;;;-144.06;65.80
11017;BME280;54687;50.800;6.772;2022-11-15T01:34:20;61101.28;;;-144.06;65.78
11017;BME280;54687;50.800;6.772;2022-11-15T01:36:46;61101.28;;;-144.06;65.92
11017;BME280;54687;50.800;6.772;2022-11-15T01:39:14;61107.59;;;-144.06;66.29
11017;BME280;54687;50.800;6.772;2022-11-15T01:41:42;61092.91;;;-144.06;66.20
11017;BME280;54687;50.800;6.772;2022-11-15T01:47:11;61109.69;;;-144.06;66.88
11017;BME280;54687;50.800;6.772;2022-11-15T01:49:47;61088.72;;;-144.06;66.71
11017;BME280;54687;50.800;6.772;2022-11-15T01:52:19;61097.09;;;-144.06;66.72
11017;BME280;54687;50.800;6.772;2022-11-15T01:54:49;61030.03;;;-144.06;67.16
11017;BME280;54687;50.800;6.772;2022-11-15T01:57:18;61084.53;;;-144.06;67.52
11017;BME280;54687;50.800;6.772;2022-11-15T01:59:45;61063.56;;;-144.06;67.65
11017;BME280;54687;50.800;6.772;2022-11-15T02:02:13;61088.72;;;-144.06;67.91
11017;BME280;54687;50.800;6.772;2022-11-15T02:04:41;61097.09;;;-144.06;67.97
11017;BME280;54687;50.800;6.772;2022-11-15T02:07:11;61105.50;;;-144.06;68.03
11017;BME280;54687;50.800;6.772;2022-11-15T02:09:39;61088.72;;;-144.06;68.07
11017;BME280;54687;50.800;6.772;2022-11-15T02:12:08;61103.38;;;-144.06;68.03
11017;BME280;54687;50.800;6.772;2022-11-15T02:14:38;61103.38;;;-144.06;67.79
11017;BME280;54687;50.800;6.772;2022-11-15T02:17:21;61118.06;;;-144.06;67.94
11017;BME280;54687;50.800;6.772;2022-11-15T02:20:27;61080.34;;;-144.06;67.62
11017;BME280;54687;50.800;6.772;2022-11-15T02:23:53;61092.91;;;-144.06;67.93
11017;BME280;54687;50.800;6.772;2022-11-15T02:26:50;61092.91;;;-144.06;67.69
11017;BME280;54687;50.800;6.772;2022-11-15T02:29:31;61051.00;;;-144.06;67.82
11017;BME280;54687;50.800;6.772;2022-11-15T02:32:07;61086.63;;;-144.06;67.57
11017;BME280;54687;50.800;6.772;2022-11-15T02:34:44;61101.28;;;-144.06;67.45
11017;BME280;54687;50.800;6.772;2022-11-15T02:37:16;61092.91;;;-144.06;67.17
11017;BME280;54687;50.800;6.772;2022-11-15T02:39:51;61074.03;;;-144.06;66.90
11017;BME280;54687;50.800;6.772;2022-11-15T02:42:25;61065.66;;;-144.06;66.92
11017;BME280;54687;50.800;6.772;2022-11-15T02:45:13;61105.50;;;-144.06;66.89
11017;BME280;54687;50.800;6.772;2022-11-15T02:47:44;61103.38;;;-144.06;66.77
11017;BME280;54687;50.800;6.772;2022-11-15T02:50:17;61080.34;;;-144.06;67.08
11017;BME280;54687;50.800;6.772;2022-11-15T02:52:45;61088.72;;;-144.06;67.05
11017;BME280;54687;50.800;6.772;2022-11-15T02:55:29;61071.94;;;-144.06;66.97
11017;BME280;54687;50.800;6.772;2022-11-15T02:58:11;61101.28;;;-144.06;66.78
11017;BME280;54687;50.800;6.772;2022-11-15T03:00:45;61088.72;;;-144.06;66.94
11017;BME280;54687;50.800;6.772;2022-11-15T03:03:32;61065.66;;;-144.06;66.90
11017;BME280;54687;50.800;6.772;2022-11-15T03:06:10;61109.69;;;-144.06;67.05
11017;BME280;54687;50.800;6.772;2022-11-15T03:08:49;61074.03;;;-144.06;66.83
11017;BME280;54687;50.800;6.772;2022-11-15T03:11:18;61069.84;;;-144.06;67.01
11017;BME280;54687;50.800;6.772;2022-11-15T03:13:49;61086.63;;;-144.06;66.76
11017;BME280;54687;50.800;6.772;2022-11-15T03:16:23;61071.94;;;-144.06;66.86
11017;BME280;54687;50.800;6.772;2022-11-15T03:18:55;61055.19;;;-144.06;66.88
11017;BME280;54687;50.800;6.772;2022-11-15T03:21:24;61040.50;;;-144.06;66.83
11017;BME280;54687;50.800;6.772;2022-11-15T03:23:52;61101.28;;;-144.06;66.83
11017;BME280;54687;50.800;6.772;2022-11-15T03:26:23;61067.75;;;-144.06;66.64
11017;BME280;54687;50.800;6.772;2022-11-15T03:28:54;61076.13;;;-144.06;66.83
11017;BME280;54687;50.800;6.772;2022-11-15T03:31:23;61097.09;;;-144.06;66.58
11017;BME280;54687;50.800;6.772;2022-11-15T03:34:19;61067.75;;;-144.06;66.66
11017;BME280;54687;50.800;6.772;2022-11-15T03:36:49;61069.84;;;-144.06;66.45
11017;BME280;54687;50.800;6.772;2022-11-15T03:39:16;61084.53;;;-144.06;66.43
11017;BME280;54687;50.800;6.772;2022-11-15T03:41:47;61038.41;;;-144.06;66.32
11017;BME280;54687;50.800;6.772;2022-11-15T03:44:21;61109.69;;;-144.06;66.45
11017;BME280;54687;50.800;6.772;2022-11-15T03:46:57;61095.00;;;-144.06;66.46
11017;BME280;54687;50.800;6.772;2022-11-15T03:49:31;61082.44;;;-144.06;66.50
11017;BME280;54687;50.800;6.772;2022-11-15T03:52:00;61071.94;;;-144.06;66.54
11017;BME280;54687;50.800;6.772;2022-11-15T03:54:28;61067.75;;;-144.06;66.37
11017;BME280;54687;50.800;6.772;2022-11-15T03:56:54;61071.94;;;-144.06;66.45
11017;BME280;54687;50.800;6.772;2022-11-15T03:59:21;61080.34;;;-144.06;66.46
11017;BME280;54687;50.800;6.772;2022-11-15T04:01:48;61067.75;;;-144.06;66.54
11017;BME280;54687;50.800;6.772;2022-11-15T04:04:15;61101.28;;;-144.06;66.52
11017;BME280;54687;50.800;6.772;2022-11-15T04:06:43;61090.81;;;-144.06;66.34
11017;BME280;54687;50.800;6.772;2022-11-15T04:09:09;61069.84;;;-144.06;66.51
11017;BME280;54687;50.800;6.772;2022-11-15T04:11:36;61067.75;;;-144.06;66.51
11017;BME280;54687;50.800;6.772;2022-11-15T04:14:03;61067.75;;;-144.06;66.66
11017;BME280;54687;50.800;6.772;2022-11-15T04:16:29;61101.28;;;-144.06;66.65
11017;BME280;54687;50.800;6.772;2022-11-15T04:18:56;61046.78;;;-144.06;66.50
11017;BME280;54687;50.800;6.772;2022-11-15T04:21:36;61086.63;;;-144.06;66.58
11017;BME280;54687;50.800;6.772;2022-11-15T04:24:21;61069.84;;;-144.06;66.84
11017;BME280;54687;50.800;6.772;2022-11-15T04:26:48;61046.78;;;-144.06;66.69
11017;BME280;54687;50.800;6.772;2022-11-15T04:29:15;61067.75;;;-144.06;66.71
11017;BME280;54687;50.800;6.772;2022-11-15T04:32:09;61130.66;;;-144.06;66.73
11017;BME280;54687;50.800;6.772;2022-11-15T04:34:36;61051.00;;;-144.06;66.63
11017;BME280;54687;50.800;6.772;2022-11-15T04:37:03;61160.00;;;-144.06;66.49
11017;BME280;54687;50.800;6.772;2022-11-15T04:39:40;61038.41;;;-144.06;66.38
11017;BME280;54687;50.800;6.772;2022-11-15T04:42:07;61080.34;;;-144.06;66.53
11017;BME280;54687;50.800;6.772;2022-11-15T04:44:35;61101.28;;;-144.06;66.29
11017;BME280;54687;50.800;6.772;2022-11-15T04:47:01;61067.75;;;-144.06;66.27
11017;BME280;54687;50.800;6.772;2022-11-15T04:49:28;61059.38;;;-144.06;66.13
11017;BME280;54687;50.800;6.772;2022-11-15T04:51:54;61101.28;;;-144.06;66.10
11017;BME280;54687;50.800;6.772;2022-11-15T04:54:21;61076.13;;;-144.06;66.04
11017;BME280;54687;50.800;6.772;2022-11-15T04:56:49;61109.69;;;-144.06;66.00
11017;BME280;54687;50.800;6.772;2022-11-15T04:59:16;61082.44;;;-144.06;66.05
11017;BME280;54687;50.800;6.772;2022-11-15T05:01:42;61097.09;;;-144.06;65.92
11017;BME280;54687;50.800;6.772;2022-11-15T05:04:09;61046.78;;;-144.06;65.85
11017;BME280;54687;50.800;6.772;2022-11-15T05:06:48;61101.28;;;-144.06;65.90
11017;BME280;54687;50.800;6.772;2022-11-15T05:09:15;61055.19;;;-144.06;65.99
11017;BME280;54687;50.800;6.772;2022-11-15T05:11:42;61074.03;;;-144.06;66.34
11017;BME280;54687;50.800;6.772;2022-11-15T05:14:10;61067.75;;;-144.06;66.41
11017;BME280;54687;50.800;6.772;2022-11-15T05:16:37;61109.69;;;-144.06;66.54
11017;BME280;54687;50.800;6.772;2022-11-15T05:19:04;61065.66;;;-144.06;66.58
11017;BME280;54687;50.800;6.772;2022-11-15T05:21:31;61051.00;;;-144.06;66.72
11017;BME280;54687;50.800;6.772;2022-11-15T05:23:58;61082.44;;;-144.06;66.51
11017;BME280;54687;50.800;6.772;2022-11-15T05:26:26;61097.09;;;-144.06;66.73
11017;BME280;54687;50.800;6.772;2022-11-15T05:28:53;61095.00;;;-144.06;67.02
11017;BME280;54687;50.800;6.772;2022-11-15T05:31:22;61088.72;;;-144.06;66.93
11017;BME280;54687;50.800;6.772;2022-11-15T05:33:50;61107.59;;;-144.06;67.25
11017;BME280;54687;50.800;6.772;2022-11-15T05:36:21;61097.09;;;-144.06;67.42
11017;BME280;54687;50.800;6.772;2022-11-15T05:38:50;61074.03;;;-144.06;67.57
11017;BME280;54687;50.800;6.772;2022-11-15T05:41:19;61101.28;;;-144.06;67.77
11017;BME280;54687;50.800;6.772;2022-11-15T05:43:48;61092.91;;;-144.06;68.03
11017;BME280;54687;50.800;6.772;2022-11-15T05:46:15;61097.09;;;-144.06;68.15
11017;BME280;54687;50.800;6.772;2022-11-15T05:48:47;61101.28;;;-144.06;68.16
11017;BME280;54687;50.800;6.772;2022-11-15T05:51:17;61086.63;;;-144.06;68.32
11017;BME280;54687;50.800;6.772;2022-11-15T05:53:45;61105.50;;;-144.06;68.64
11017;BME280;54687;50.800;6.772;2022-11-15T05:56:12;61118.06;;;-144.06;68.52
11017;BME280;54687;50.800;6.772;2022-11-15T05:58:40;61071.94;;;-144.06;68.57
11017;BME280;54687;50.800;6.772;2022-11-15T06:01:07;61134.84;;;-144.06;68.49
11017;BME280;54687;50.800;6.772;2022-11-15T06:03:34;61139.03;;;-144.06;68.25
11017;BME280;54687;50.800;6.772;2022-11-15T06:06:02;61124.34;;;-144.06;68.29
11017;BME280;54687;50.800;6.772;2022-11-15T06:08:29;61109.69;;;-144.06;68.26
11017;BME280;54687;50.800;6.772;2022-11-15T06:10:56;61097.09;;;-144.06;67.98
11017;BME280;54687;50.800;6.772;2022-11-15T06:13:22;61103.38;;;-144.06;68.20
11017;BME280;54687;50.800;6.772;2022-11-15T06:15:49;61099.19;;;-144.06;67.89
11017;BME280;54687;50.800;6.772;2022-11-15T06:18:16;61130.66;;;-144.06;68.18
11017;BME280;54687;50.800;6.772;2022-11-15T06:20:42;61105.50;;;-144.06;67.97
11017;BME280;54687;50.800;6.772;2022-11-15T06:23:10;61139.03;;;-144.06;68.00
11017;BME280;54687;50.800;6.772;2022-11-15T06:25:38;61101.28;;;-144.06;67.76
11017;BME280;54687;50.800;6.772;2022-11-15T06:28:05;61134.84;;;-144.06;67.91
11017;BME280;54687;50.800;6.772;2022-11-15T06:30:31;61111.78;;;-144.06;67.97
11017;BME280;54687;50.800;6.772;2022-11-15T06:32:59;61168.38;;;-144.06;68.08
11017;BME280;54687;50.800;6.772;2022-11-15T06:35:27;61155.81;;;-144.06;68.01
11017;BME280;54687;50.800;6.772;2022-11-15T06:37:54;61124.34;;;-144.06;68.32
11017;BME280;54687;50.800;6.772;2022-11-15T06:40:22;61101.28;;;-144.06;68.51
11017;BME280;54687;50.800;6.772;2022-11-15T06:42:48;61160.00;;;-144.06;68.59
11017;BME280;54687;50.800;6.772;2022-11-15T06:45:15;61126.44;;;-144.06;68.84
11017;BME280;54687;50.800;6.772;2022-11-15T06:47:44;61118.06;;;-144.06;69.01
11017;BME280;54687;50.800;6.772;2022-11-15T06:50:12;61160.00;;;-144.06;68.96
11017;BME280;54687;50.800;6.772;2022-11-15T06:52:38;61124.34;;;-144.06;69.10
11017;BME280;54687;50.800;6.772;2022-11-15T06:55:06;61130.66;;;-144.06;69.05
11017;BME280;54687;50.800;6.772;2022-11-15T06:57:35;61130.66;;;-144.06;68.72
11017;BME280;54687;50.800;6.772;2022-11-15T07:00:03;61136.94;;;-144.06;68.87
11017;BME280;54687;50.800;6.772;2022-11-15T07:02:30;61174.66;;;-144.06;68.90
11017;BME280;54687;50.800;6.772;2022-11-15T07:05:00;61139.03;;;-144.06;68.87
11017;BME280;54687;50.800;6.772;2022-11-15T07:07:26;61113.88;;;-144.06;69.13
11017;BME280;54687;50.800;6.772;2022-11-15T07:09:53;61086.63;;;-144.06;69.05
11017;BME280;54687;50.800;6.772;2022-11-15T07:12:19;61120.16;;;-144.06;68.86
11017;BME280;54687;50.800;6.772;2022-11-15T07:14:48;61120.16;;;-144.06;68.78
11017;BME280;54687;50.800;6.772;2022-11-15T07:19:52;61113.88;;;-144.06;68.70
11017;BME280;54687;50.800;6.772;2022-11-15T07:22:19;61155.81;;;-144.06;68.08
11017;BME280;54687;50.800;6.772;2022-11-15T07:24:46;61130.66;;;-144.06;68.16
11017;BME280;54687;50.800;6.772;2022-11-15T07:27:13;61090.81;;;-144.06;67.77
11017;BME280;54687;50.800;6.772;2022-11-15T07:29:39;61134.84;;;-144.06;67.54
11017;BME280;54687;50.800;6.772;2022-11-15T07:32:07;61151.59;;;-144.06;67.55
11017;BME280;54687;50.800;6.772;2022-11-15T07:34:35;61139.03;;;-144.06;67.20
11017;BME280;54687;50.800;6.772;2022-11-15T07:37:02;61097.09;;;-144.06;67.22
11017;BME280;54687;50.800;6.772;2022-11-15T07:39:28;61122.25;;;-144.06;67.05
11017;BME280;54687;50.800;6.772;2022-11-15T07:41:55;61160.00;;;-144.06;66.95
11017;BME280;54687;50.800;6.772;2022-11-15T07:44:36;61101.28;;;-144.06;66.81
11017;BME280;54687;50.800;6.772;2022-11-15T07:47:02;61113.88;;;-144.06;66.72
11017;BME280;54687;50.800;6.772;2022-11-15T07:49:30;61130.66;;;-144.06;66.45
11017;BME280;54687;50.800;6.772;2022-11-15T07:51:57;61122.25;;;-144.06;66.51
11017;BME280;54687;50.800;6.772;2022-11-15T07:54:24;61103.38;;;-144.06;66.46
11017;BME280;54687;50.800;6.772;2022-11-15T07:56:51;61126.44;;;-144.06;66.26
11017;BME280;54687;50.800;6.772;2022-11-15T07:59:17;61101.28;;;-144.06;66.31
11017;BME280;54687;50.800;6.772;2022-11-15T08:01:44;61130.66;;;-144.06;66.34
11017;BME280;54687;50.800;6.772;2022-11-15T08:04:11;61111.78;;;-144.06;65.93
11017;BME280;54687;50.800;6.772;2022-11-15T08:06:39;61122.25;;;-144.06;65.77
11017;BME280;54687;50.800;6.772;2022-11-15T08:09:06;61139.03;;;-144.06;65.73
11017;BME280;54687;50.800;6.772;2022-11-15T08:11:32;61134.84;;;-144.06;65.68
11017;BME280;54687;50.800;6.772;2022-11-15T08:13:59;61105.50;;;-144.06;65.57
11017;BME280;54687;50.800;6.772;2022-11-15T08:16:26;61084.53;;;-144.06;65.43
11017;BME280;54687;50.800;6.772;2022-11-15T08:18:52;61078.25;;;-144.06;65.37
11017;BME280;54687;50.800;6.772;2022-11-15T08:21:20;61080.34;;;-144.06;65.00
11017;BME280;54687;50.800;6.772;2022-11-15T08:23:48;61122.25;;;-144.06;64.80
11017;BME280;54687;50.800;6.772;2022-11-15T08:26:15;61151.59;;;-144.06;64.72
11017;BME280;54687;50.800;6.772;2022-11-15T08:28:42;61101.28;;;-144.06;64.45
11017;BME280;54687;50.800;6.772;2022-11-15T08:31:13;61097.09;;;-144.06;63.76
11017;BME280;54687;50.800;6.772;2022-11-15T08:33:40;61124.34;;;-144.06;63.62
11017;BME280;54687;50.800;6.772;2022-11-15T08:36:12;61124.34;;;-144.06;63.26
11017;BME280;54687;50.800;6.772;2022-11-15T08:38:39;61092.91;;;-144.06;63.13
11017;BME280;54687;50.800;6.772;2022-11-15T08:41:09;61069.84;;;-144.06;63.05
11017;BME280;54687;50.800;6.772;2022-11-15T08:43:37;61090.81;;;-144.06;62.17
11017;BME280;54687;50.800;6.772;2022-11-15T08:46:03;61134.84;;;-144.06;62.24
11017;BME280;54687;50.800;6.772;2022-11-15T08:48:30;61088.72;;;-144.06;61.88
11017;BME280;54687;50.800;6.772;2022-11-15T08:50:57;61153.69;;;-144.06;61.31
11017;BME280;54687;50.800;6.772;2022-11-15T08:53:24;61092.91;;;-144.06;61.07
11017;BME280;54687;50.800;6.772;2022-11-15T08:55:53;61080.34;;;-144.06;60.59
11017;BME280;54687;50.800;6.772;2022-11-15T08:58:21;61111.78;;;-144.06;60.31
11017;BME280;54687;50.800;6.772;2022-11-15T09:00:48;61095.00;;;-144.06;59.39
11017;BME280;54687;50.800;6.772;2022-11-15T09:03:15;61071.94;;;-144.06;59.09
11017;BME280;54687;50.800;6.772;2022-11-15T09:05:44;61067.75;;;-144.06;58.88
11017;BME280;54687;50.800;6.772;2022-11-15T09:08:11;61067.75;;;-144.06;58.54
11017;BME280;54687;50.800;6.772;2022-11-15T09:10:38;61088.72;;;-144.06;58.04
11017;BME280;54687;50.800;6.772;2022-11-15T09:13:04;61042.59;;;-144.06;57.54
11017;BME280;54687;50.800;6.772;2022-11-15T09:15:32;61051.00;;;-144.06;57.54
11017;BME280;54687;50.800;6.772;2022-11-15T09:17:59;61074.03;;;-144.06;56.51
11017;BME280;54687;50.800;6.772;2022-11-15T09:20:25;61143.22;;;-144.06;56.56
11017;BME280;54687;50.800;6.772;2022-11-15T09:22:52;61109.69;;;-144.06;56.54
11017;BME280;54687;50.800;6.772;2022-11-15T09:25:19;61048.88;;;-144.06;56.47
11017;BME280;54687;50.800;6.772;2022-11-15T09:27:45;61071.94;;;-144.06;56.22
11017;BME280;54687;50.800;6.772;2022-11-15T09:30:13;61059.38;;;-144.06;55.88
11017;BME280;54687;50.800;6.772;2022-11-15T09:32:41;61051.00;;;-144.06;55.53
11017;BME280;54687;50.800;6.772;2022-11-15T09:35:07;61059.38;;;-144.06;55.25
11017;BME280;54687;50.800;6.772;2022-11-15T09:37:34;61023.75;;;-144.06;55.28
11017;BME280;54687;50.800;6.772;2022-11-15T09:40:01;61063.56;;;-144.06;54.74
11017;BME280;54687;50.800;6.772;2022-11-15T09:42:45;61069.84;;;-144.06;54.13
11017;BME280;54687;50.800;6.772;2022-11-15T09:45:20;61025.84;;;-144.06;53.25
11017;BME280;54687;50.800;6.772;2022-11-15T09:48:09;61051.00;;;-144.06;52.76
11017;BME280;54687;50.800;6.772;2022-11-15T09:50:42;61053.09;;;-144.06;52.59
11017;BME280;54687;50.800;6.772;2022-11-15T09:53:14;61063.56;;;-144.06;52.15
11017;BME280;54687;50.800;6.772;2022-11-15T09:55:49;61055.19;;;-144.06;51.82
11017;BME280;54687;50.800;6.772;2022-11-15T09:58:24;61053.09;;;-144.06;52.38
11017;BME280;54687;50.800;6.772;2022-11-15T10:00:53;61025.84;;;-144.06;52.10
11017;BME280;54687;50.800;6.772;2022-11-15T10:03:27;61040.50;;;-144.06;51.65
11017;BME280;54687;50.800;6.772;2022-11-15T10:05:57;61059.38;;;-144.06;51.28
11017;BME280;54687;50.800;6.772;2022-11-15T10:08:34;61034.22;;;-144.06;50.57
11017;BME280;54687;50.800;6.772;2022-11-15T10:11:05;61063.56;;;-144.06;48.44
11017;BME280;54687;50.800;6.772;2022-11-15T10:13:36;61017.44;;;-144.06;48.58
11017;BME280;54687;50.800;6.772;2022-11-15T10:16:12;61027.94;;;-144.06;48.26
11017;BME280;54687;50.800;6.772;2022-11-15T10:18:55;61030.03;;;-144.06;47.65
11017;BME280;54687;50.800;6.772;2022-11-15T10:21:32;61036.31;;;-144.06;47.69
11017;BME280;54687;50.800;6.772;2022-11-15T10:24:10;61006.97;;;-144.06;47.12
11017;BME280;54687;50.800;6.772;2022-11-15T10:26:37;61023.75;;;-144.06;47.36
11017;BME280;54687;50.800;6.772;2022-11-15T10:29:03;61051.00;;;-144.06;47.22
11017;BME280;54687;50.800;6.772;2022-11-15T10:31:30;61034.22;;;-144.06;47.38
11017;BME280;54687;50.800;6.772;2022-11-15T10:34:12;61034.22;;;-144.06;47.57
11017;BME280;54687;50.800;6.772;2022-11-15T10:36:44;60996.50;;;-144.06;47.01
11017;BME280;54687;50.800;6.772;2022-11-15T10:39:12;61013.25;;;-144.06;47.85
11017;BME280;54687;50.800;6.772;2022-11-15T10:41:40;61055.19;;;-144.06;47.41
11017;BME280;54687;50.800;6.772;2022-11-15T10:44:23;61046.78;;;-144.06;47.58
11017;BME280;54687;50.800;6.772;2022-11-15T10:47:24;60988.09;;;-144.06;47.43
11017;BME280;54687;50.800;6.772;2022-11-15T10:50:01;61019.53;;;-144.06;47.67
11017;BME280;54687;50.800;6.772;2022-11-15T10:52:31;60992.28;;;-144.06;47.33
11017;BME280;54687;50.800;6.772;2022-11-15T10:55:04;60979.72;;;-144.06;47.42
11017;BME280;54687;50.800;6.772;2022-11-15T10:57:35;61013.25;;;-144.06;47.41
11017;BME280;54687;50.800;6.772;2022-11-15T11:00:05;61030.03;;;-144.06;47.76
11017;BME280;54687;50.800;6.772;2022-11-15T11:02:36;60990.19;;;-144.06;47.81
11017;BME280;54687;50.800;6.772;2022-11-15T11:05:06;61038.41;;;-144.06;47.88
11017;BME280;54687;50.800;6.772;2022-11-15T11:07:56;61025.84;;;-144.06;48.14
11017;BME280;54687;50.800;6.772;2022-11-15T11:10:23;60981.81;;;-144.06;48.17
11017;BME280;54687;50.800;6.772;2022-11-15T11:12:50;61030.03;;;-144.06;48.12
11017;BME280;54687;50.800;6.772;2022-11-15T11:15:17;61023.75;;;-144.06;48.18
11017;BME280;54687;50.800;6.772;2022-11-15T11:17:54;60983.91;;;-144.06;48.20
11017;BME280;54687;50.800;6.772;2022-11-15T11:20:29;61009.06;;;-144.06;48.46
11017;BME280;54687;50.800;6.772;2022-11-15T11:23:12;61021.63;;;-144.06;48.12
11017;BME280;54687;50.800;6.772;2022-11-15T11:25:47;61004.88;;;-144.06;48.37
11017;BME280;54687;50.800;6.772;2022-11-15T11:28:30;60992.28;;;-144.06;48.53
11017;BME280;54687;50.800;6.772;2022-11-15T11:31:07;60960.84;;;-144.06;48.75
11017;BME280;54687;50.800;6.772;2022-11-15T11:33:43;61002.78;;;-144.06;48.76
11017;BME280;54687;50.800;6.772;2022-11-15T11:36:19;61009.06;;;-144.06;49.06
11017;BME280;54687;50.800;6.772;2022-11-15T11:39:09;60992.28;;;-144.06;49.40
11017;BME280;54687;50.800;6.772;2022-11-15T11:41:51;61025.84;;;-144.06;49.57
11017;BME280;54687;50.800;6.772;2022-11-15T11:44:28;61002.78;;;-144.06;49.71
11017;BME280;54687;50.800;6.772;2022-11-15T11:47:00;61000.69;;;-144.06;49.50
11017;BME280;54687;50.800;6.772;2022-11-15T11:49:32;61004.88;;;-144.06;48.74
11017;BME280;54687;50.800;6.772;2022-11-15T11:52:10;61021.63;;;-144.06;49.06
11017;BME280;54687;50.800;6.772;2022-11-15T11:54:46;61002.78;;;-144.06;49.07
11017;BME280;54687;50.800;6.772;2022-11-15T11:57:22;61002.78;;;-144.06;48.86
11017;BME280;54687;50.800;6.772;2022-11-15T11:59:56;60983.91;;;-144.06;48.86
11017;BME280;54687;50.800;6.772;2022-11-15T12:02:28;60983.91;;;-144.06;48.53
11017;BME280;54687;50.800;6.772;2022-11-15T12:05:03;60941.97;;;-144.06;48.22
11017;BME280;54687;50.800;6.772;2022-11-15T12:07:35;61000.69;;;-144.06;48.81
11017;BME280;54687;50.800;6.772;2022-11-15T12:10:14;60983.91;;;-144.06;48.86
11017;BME280;54687;50.800;6.772;2022-11-15T12:12:48;61034.22;;;-144.06;48.94
11017;BME280;54687;50.800;6.772;2022-11-15T12:15:19;61032.13;;;-144.06;48.54
11017;BME280;54687;50.800;6.772;2022-11-15T12:17:48;60996.50;;;-144.06;48.29
11017;BME280;54687;50.800;6.772;2022-11-15T12:20:16;61000.69;;;-144.06;48.68
11017;BME280;54687;50.800;6.772;2022-11-15T12:22:49;61015.34;;;-144.06;48.77
11017;BME280;54687;50.800;6.772;2022-11-15T12:25:21;61021.63;;;-144.06;48.74
11017;BME280;54687;50.800;6.772;2022-11-15T12:27:51;60983.91;;;-144.06;48.71
11017;BME280;54687;50.800;6.772;2022-11-15T12:30:22;60996.50;;;-144.06;48.66
11017;BME280;54687;50.800;6.772;2022-11-15T12:32:53;60967.13;;;-144.06;48.92
11017;BME280;54687;50.800;6.772;2022-11-15T12:35:26;60969.22;;;-144.06;48.15
11017;BME280;54687;50.800;6.772;2022-11-15T12:37:55;60996.50;;;-144.06;48.01
11017;BME280;54687;50.800;6.772;2022-11-15T12:40:34;60965.03;;;-144.06;48.19
11017;BME280;54687;50.800;6.772;2022-11-15T12:46:13;60977.63;;;-144.06;48.17
11017;BME280;54687;50.800;6.772;2022-11-15T12:48:48;60979.72;;;-144.06;48.12
11017;BME280;54687;50.800;6.772;2022-11-15T12:51:15;60992.28;;;-144.06;48.00
11017;BME280;54687;50.800;6.772;2022-11-15T12:53:43;60994.38;;;-144.06;48.29
11017;BME280;54687;50.800;6.772;2022-11-15T12:56:20;60983.91;;;-144.06;47.65
11017;BME280;54687;50.800;6.772;2022-11-15T12:58:49;60979.72;;;-144.06;47.88
11017;BME280;54687;50.800;6.772;2022-11-15T13:01:53;60979.72;;;-144.06;47.60
11017;BME280;54687;50.800;6.772;2022-11-15T13:04:25;60994.38;;;-144.06;48.27
11017;BME280;54687;50.800;6.772;2022-11-15T13:06:53;60983.91;;;-144.06;48.54